Time;durP1;ratioP1;P1;durP2;ratioP2;P2;SDS_P1;SDS_P2;PMS_P1;PMS_P2;Temp;Humidity;BMP_temperature;BMP_pressure;BME280_temperature;BME280_humidity;BME280_pressure;Samples;Min_cycle;Max_cycle;Signal;HPM_P1;HPM_P2
2022/05/22 00:01:07;;;;;;;3.83;3.63;;;12.50;99.90;;;13.25;82.32;98155.22;5122080;28;20668;-58
2022/05/22 00:03:41;;;;;;;4.20;3.88;;;12.50;99.90;;;13.31;81.63;98158.91;5126164;28;20205;-59
2022/05/22 00:06:14;;;;;;;4.65;4.25;;;12.50;99.90;;;13.30;82.22;98158.00;5122204;28;20229;-59
2022/05/22 00:08:47;;;;;;;4.53;4.13;;;12.60;99.90;;;13.25;81.36;98159.44;5119660;28;20323;-60
2022/05/22 00:11:22;;;;;;;3.97;3.67;;;12.60;99.90;;;13.22;81.64;98164.38;5121288;28;20225;-55
2022/05/22 00:13:56;;;;;;;4.30;3.90;;;12.60;99.90;;;13.27;80.67;98169.00;5124143;28;20204;-59
2022/05/22 00:16:41;;;;;;;4.15;3.67;;;12.50;99.90;;;13.23;80.60;98166.19;5120750;28;20562;-59
2022/05/22 00:19:19;;;;;;;4.30;3.75;;;12.50;99.90;;;13.18;81.43;98167.63;5118964;28;20205;-59
2022/05/22 00:21:52;;;;;;;4.22;3.90;;;12.50;99.90;;;13.18;81.90;98159.91;5149415;28;20196;-58
2022/05/22 00:24:29;;;;;;;4.38;3.97;;;12.40;99.90;;;13.12;79.91;98162.16;5128361;28;20232;-58
2022/05/22 00:27:04;;;;;;;4.32;3.95;;;12.40;99.90;;;12.91;79.35;98157.69;5122685;28;20259;-56
2022/05/22 00:29:39;;;;;;;4.30;4.00;;;12.10;99.90;;;12.94;81.19;98152.72;5126001;28;20785;-57
2022/05/22 00:32:12;;;;;;;3.88;3.63;;;12.10;99.90;;;12.94;81.84;98152.72;5122420;28;20378;-59
2022/05/22 00:34:45;;;;;;;5.22;4.40;;;12.20;99.90;;;12.98;82.24;98154.63;5123784;28;20250;-57
2022/05/22 00:37:18;;;;;;;4.32;4.00;;;12.30;99.90;;;13.00;80.78;98149.59;5122992;28;20278;-59
2022/05/22 00:39:51;;;;;;;4.38;3.67;;;12.30;99.90;;;12.98;81.75;98153.75;5130663;28;20585;-58
2022/05/22 00:42:26;;;;;;;4.15;3.95;;;12.30;99.90;;;12.96;81.56;98146.00;5132355;28;20300;-55
2022/05/22 00:45:01;;;;;;;4.60;4.30;;;12.20;99.90;;;12.83;81.37;98153.81;5124385;28;20216;-51
2022/05/22 00:47:34;;;;;;;4.50;4.20;;;12.10;99.90;;;12.72;81.16;98136.97;5129215;28;20221;-55
2022/05/22 00:50:08;;;;;;;4.50;4.10;;;12.00;99.90;;;12.70;81.35;98130.88;5119939;28;20634;-51
2022/05/22 00:52:47;;;;;;;4.55;4.25;;;11.90;99.90;;;12.64;82.63;98123.75;5126224;28;20212;-50
2022/05/22 00:55:23;;;;;;;4.45;4.05;;;11.90;99.90;;;12.69;82.62;98137.69;5120497;28;20231;-51
2022/05/22 00:57:59;;;;;;;4.05;3.75;;;12.00;99.90;;;12.72;82.67;98139.56;5121115;28;20305;-54
2022/05/22 01:00:36;;;;;;;4.85;4.30;;;12.00;99.90;;;12.74;82.97;98143.09;5129647;28;20831;-50
2022/05/22 01:03:31;;;;;;;4.78;4.32;;;12.10;99.90;;;12.72;83.79;98137.88;5123315;28;20211;-58
2022/05/22 01:06:08;;;;;;;5.00;4.55;;;12.10;99.90;;;12.74;83.66;98125.13;5124444;28;20251;-56
2022/05/22 01:08:42;;;;;;;5.10;4.63;;;12.10;99.90;;;12.73;82.50;98120.78;5125279;28;20193;-53
2022/05/22 01:11:20;;;;;;;4.60;4.20;;;12.10;99.90;;;12.72;82.77;98124.16;5132954;28;20732;-53
2022/05/22 01:13:58;;;;;;;4.75;4.35;;;12.00;99.90;;;12.67;82.83;98125.59;5127560;28;20201;-50
2022/05/22 01:16:33;;;;;;;4.15;3.85;;;12.00;99.90;;;12.64;83.20;98131.44;5118867;28;21741;-50
2022/05/22 01:19:13;;;;;;;5.00;4.45;;;12.00;99.90;;;12.54;81.90;98126.63;5118366;28;20207;-53
2022/05/22 01:21:54;;;;;;;4.60;4.30;;;11.90;99.90;;;12.53;81.93;98123.19;5116910;28;20233;-51
2022/05/22 01:24:27;;;;;;;4.80;4.40;;;11.80;99.90;;;12.41;82.19;98112.25;5135646;28;20348;-51
2022/05/22 01:27:04;;;;;;;4.90;4.50;;;11.70;99.90;;;12.49;82.96;98121.25;5117312;28;20236;-58
2022/05/22 01:29:43;;;;;;;5.00;4.50;;;11.80;99.90;;;12.51;84.12;98109.41;5124632;28;20209;-53
2022/05/22 01:32:16;;;;;;;4.63;4.22;;;11.80;99.90;;;12.40;82.80;98105.38;5131451;28;20240;-51
2022/05/22 01:34:49;;;;;;;4.80;4.50;;;11.70;99.90;;;12.26;83.02;98109.75;5120370;28;20254;-53
2022/05/22 01:37:24;;;;;;;4.95;4.35;;;11.60;99.90;;;12.29;83.39;98107.34;5128910;28;20316;-51
2022/05/22 01:39:57;;;;;;;4.60;4.20;;;11.60;99.90;;;12.13;82.73;98108.22;5129556;28;20208;-52
2022/05/22 01:42:31;;;;;;;5.05;4.60;;;11.40;99.90;;;12.04;82.89;98105.13;5125565;28;20287;-53
2022/05/22 01:45:07;;;;;;;6.47;4.50;;;11.20;99.90;;;12.04;84.93;98115.38;5136314;28;20288;-52
2022/05/22 01:47:40;;;;;;;4.95;4.65;;;11.30;99.90;;;11.96;83.59;98106.41;5130984;28;20311;-51
2022/05/22 01:50:14;;;;;;;5.20;4.80;;;11.30;99.90;;;11.86;84.96;98109.25;5127514;28;20763;-51
2022/05/22 01:52:49;;;;;;;5.57;5.20;;;11.20;99.90;;;11.90;84.48;98121.41;5131324;28;20232;-54
2022/05/22 01:55:22;;;;;;;5.20;4.80;;;11.20;99.90;;;12.02;85.27;98116.09;5130406;28;20673;-51
2022/05/22 01:57:55;;;;;;;4.30;4.00;;;11.40;99.90;;;12.00;84.69;98108.34;5127407;28;20255;-51
2022/05/22 02:00:30;;;;;;;4.68;4.38;;;11.40;99.90;;;12.11;84.99;98112.38;5131069;28;20259;-53
2022/05/22 02:03:04;;;;;;;5.55;5.15;;;11.50;99.90;;;12.12;83.70;98105.56;5121911;28;20585;-55
2022/05/22 02:05:37;;;;;;;5.35;4.90;;;11.50;99.90;;;12.13;84.20;98107.31;5133545;28;20695;-52
2022/05/22 02:08:22;;;;;;;5.32;4.82;;;11.40;99.90;;;12.12;85.27;98106.44;5121685;28;20233;-56
2022/05/22 02:10:59;;;;;;;5.78;5.20;;;11.40;99.90;;;12.15;85.18;98101.47;5124427;28;20217;-54
2022/05/22 02:13:36;;;;;;;5.03;4.60;;;11.50;99.90;;;12.13;84.04;98105.66;5133022;28;22070;-51
2022/05/22 02:16:09;;;;;;;4.90;4.28;;;11.40;99.90;;;12.20;83.72;98106.00;5136986;28;20217;-52
2022/05/22 02:18:42;;;;;;;5.10;4.70;;;11.40;99.90;;;12.09;82.85;98097.72;5139721;28;20201;-53
2022/05/22 02:21:15;;;;;;;5.53;5.13;;;11.30;99.90;;;12.12;83.99;98096.19;5125021;28;20229;-51
2022/05/22 02:23:50;;;;;;;5.32;4.82;;;11.30;99.90;;;11.94;83.61;98093.50;5118895;28;20616;-54
2022/05/22 02:26:23;;;;;;;4.60;4.30;;;11.30;99.90;;;11.77;84.64;98094.22;5133255;28;20223;-54
2022/05/22 02:28:56;;;;;;;4.97;4.57;;;11.00;99.90;;;11.72;85.02;98086.25;5134221;28;20201;-53
2022/05/22 02:31:30;;;;;;;4.70;4.40;;;11.00;99.90;;;11.76;85.69;98082.22;5127122;28;20221;-51
2022/05/22 02:34:03;;;;;;;5.28;4.90;;;11.10;99.90;;;11.75;85.69;98084.69;5131872;28;20197;-55
2022/05/22 02:36:36;;;;;;;5.40;5.00;;;11.10;99.90;;;11.70;84.72;98077.63;5132365;28;20220;-51
2022/05/22 02:39:10;;;;;;;5.20;4.72;;;11.10;99.90;;;11.75;85.05;98079.56;5131854;28;20286;-52
2022/05/22 02:41:44;;;;;;;5.30;4.90;;;11.10;99.90;;;11.81;86.15;98067.09;5130276;28;20204;-55
2022/05/22 02:44:17;;;;;;;5.15;4.75;;;11.10;99.90;;;11.83;85.56;98071.50;5146958;28;20205;-55
2022/05/22 02:46:50;;;;;;;4.80;4.35;;;11.20;99.90;;;11.82;85.74;98072.31;5128238;28;20350;-54
2022/05/22 02:49:23;;;;;;;5.15;4.60;;;11.20;99.90;;;11.76;84.47;98063.38;5120134;28;21390;-52
2022/05/22 02:51:56;;;;;;;5.00;4.60;;;11.20;99.90;;;11.86;84.35;98058.91;5121008;28;20270;-54
2022/05/22 02:54:30;;;;;;;4.90;4.55;;;11.10;99.90;;;11.84;84.48;98062.13;5142249;28;20201;-58
2022/05/22 02:57:06;;;;;;;4.80;4.30;;;11.20;99.90;;;11.78;84.16;98064.34;5130342;28;20679;-55
2022/05/22 02:59:39;;;;;;;5.07;4.32;;;11.20;99.90;;;11.58;82.78;98063.25;5136238;28;20220;-54
2022/05/22 03:02:12;;;;;;;5.00;4.70;;;10.90;99.90;;;11.55;83.56;98066.50;5144177;28;20250;-53
2022/05/22 03:04:47;;;;;;;4.78;4.47;;;10.80;99.90;;;11.64;85.83;98072.13;5142019;28;20236;-56
2022/05/22 03:07:20;;;;;;;4.70;4.40;;;10.90;99.90;;;11.65;84.83;98066.25;5133917;28;20327;-52
2022/05/22 03:09:54;;;;;;;5.50;4.70;;;11.00;99.90;;;11.61;84.65;98056.59;5138435;28;20208;-52
2022/05/22 03:12:28;;;;;;;5.43;5.07;;;10.90;99.90;;;11.65;86.05;98053.44;5133515;28;20354;-55
2022/05/22 03:15:01;;;;;;;5.15;4.75;;;10.90;99.90;;;11.63;86.38;98047.34;5137882;28;20205;-53
2022/05/22 03:17:34;;;;;;;5.00;4.57;;;11.00;99.90;;;11.65;85.60;98048.31;5143986;28;20228;-56
2022/05/22 03:20:10;;;;;;;5.35;4.88;;;10.90;99.90;;;11.59;85.24;98037.75;5128945;28;20246;-55
2022/05/22 03:22:43;;;;;;;4.78;4.35;;;10.90;99.90;;;11.50;84.68;98035.56;5124803;28;20258;-53
2022/05/22 03:25:18;;;;;;;4.90;4.50;;;10.80;99.90;;;11.60;85.71;98034.38;5130247;28;20208;-53
2022/05/22 03:27:51;;;;;;;4.93;4.50;;;10.90;99.90;;;11.59;85.89;98032.63;5137015;28;20252;-54
2022/05/22 03:30:25;;;;;;;5.18;4.78;;;10.90;99.90;;;11.64;85.56;98025.19;5143682;28;20205;-53
2022/05/22 03:32:58;;;;;;;4.95;4.55;;;10.90;99.90;;;11.63;85.26;98031.97;5133913;28;20528;-51
2022/05/22 03:35:31;;;;;;;5.03;4.68;;;10.90;99.90;;;11.68;86.13;98020.31;5156237;28;20288;-58
2022/05/22 03:38:05;;;;;;;5.30;4.82;;;11.00;99.90;;;11.64;85.06;98015.81;5130403;28;20254;-52
2022/05/22 03:40:46;;;;;;;5.10;4.70;;;10.90;99.90;;;11.55;85.73;98010.19;5129610;28;20232;-54
2022/05/22 03:43:19;;;;;;;4.70;4.30;;;10.80;99.90;;;11.46;84.19;98008.00;5141357;28;20205;-55
2022/05/22 03:45:53;;;;;;;5.22;4.78;;;10.70;99.90;;;11.55;84.77;98010.19;5132938;28;20208;-52
2022/05/22 03:48:26;;;;;;;5.22;4.72;;;10.80;99.90;;;11.58;84.46;98015.47;5136686;28;20304;-55
2022/05/22 03:50:59;;;;;;;5.30;4.88;;;10.90;99.90;;;11.54;84.63;98016.13;5131721;28;20666;-55
2022/05/22 03:53:32;;;;;;;4.90;4.50;;;10.90;99.90;;;11.58;84.80;98014.59;5146414;28;20197;-56
2022/05/22 03:56:16;;;;;;;5.32;5.00;;;10.90;99.90;;;11.61;85.04;98015.66;5132347;28;20229;-52
2022/05/22 03:58:49;;;;;;;5.82;5.38;;;10.90;99.90;;;11.58;84.48;98014.59;5140936;28;20242;-56
2022/05/22 04:01:22;;;;;;;5.28;4.68;;;10.80;99.90;;;11.50;84.34;98020.19;5125408;28;20225;-51
2022/05/22 04:03:56;;;;;;;5.72;5.22;;;10.80;99.90;;;11.43;84.79;98019.75;5135311;28;20244;-57
2022/05/22 04:06:29;;;;;;;5.07;4.68;;;10.80;99.90;;;11.42;83.91;98013.75;5132148;28;20769;-53
2022/05/22 04:09:02;;;;;;;5.47;5.07;;;10.70;99.90;;;11.49;84.54;98017.53;5143714;28;20737;-55
2022/05/22 04:11:40;;;;;;;5.13;4.72;;;10.70;99.90;;;11.54;85.79;98017.81;5133338;28;20237;-54
2022/05/22 04:14:14;;;;;;;4.75;4.45;;;10.80;99.90;;;11.57;84.81;98016.28;5122088;28;20634;-52
2022/05/22 04:16:48;;;;;;;6.03;5.57;;;10.80;99.90;;;11.64;84.84;98020.94;5128835;28;20761;-53
2022/05/22 04:19:21;;;;;;;5.20;4.90;;;10.90;99.90;;;11.72;85.55;98016.25;5148879;28;20255;-53
2022/05/22 04:21:54;;;;;;;5.28;4.88;;;11.10;99.90;;;11.73;84.83;98011.22;5150296;28;20318;-53
2022/05/22 04:27:19;;;;;;;4.80;4.50;;;11.00;99.90;;;11.77;85.09;98011.38;5147459;28;20248;-53
2022/05/22 04:29:52;;;;;;;4.60;4.28;;;11.10;99.90;;;11.87;83.83;98008.56;5117900;28;20228;-51
2022/05/22 04:32:25;;;;;;;5.07;4.68;;;11.20;99.90;;;11.98;83.55;98007.44;5133178;28;20287;-53
2022/05/22 04:34:58;;;;;;;5.50;5.00;;;11.20;99.90;;;12.04;83.03;97996.66;5115904;28;20228;-51
2022/05/22 04:37:31;;;;;;;5.55;5.07;;;11.30;99.90;;;12.06;83.88;97990.81;5123001;28;20640;-54
2022/05/22 04:40:09;;;;;;;5.00;4.60;;;11.40;99.90;;;12.15;82.13;97991.28;5135928;28;20265;-54
2022/05/22 04:42:44;;;;;;;4.65;4.35;;;11.40;99.90;;;12.02;82.87;97993.13;5138901;28;20235;-52
2022/05/22 04:45:17;;;;;;;5.20;4.80;;;11.20;99.90;;;12.14;83.71;97989.53;5121467;28;20243;-53
2022/05/22 04:47:50;;;;;;;4.93;4.53;;;11.40;99.90;;;12.24;81.66;97990.03;5129646;28;20306;-53
2022/05/22 04:50:23;;;;;;;5.18;4.68;;;11.50;99.90;;;12.32;81.87;97988.75;5135593;28;20284;-54
2022/05/22 04:52:57;;;;;;;4.78;4.38;;;11.50;99.90;;;12.42;82.10;97985.88;5145433;28;20370;-54
2022/05/22 04:55:30;;;;;;;5.13;4.75;;;11.60;99.90;;;12.45;81.03;97982.56;5143041;28;20255;-51
2022/05/22 04:58:04;;;;;;;4.53;4.22;;;11.70;99.90;;;12.60;82.07;97984.25;5119272;28;20303;-56
2022/05/22 05:00:37;;;;;;;4.50;4.20;;;11.90;99.90;;;12.76;80.09;97985.00;5131617;28;20641;-53
2022/05/22 05:03:10;;;;;;;4.55;4.18;;;12.00;99.90;;;13.00;79.79;97993.94;5129084;28;20239;-55
2022/05/22 05:05:44;;;;;;;4.55;4.15;;;12.20;99.90;;;13.13;79.10;97995.41;5148367;28;20548;-57
2022/05/22 05:08:17;;;;;;;4.60;4.30;;;12.30;99.90;;;13.42;78.09;97994.31;5137136;28;20209;-52
2022/05/22 05:10:51;;;;;;;5.22;4.28;;;12.50;99.90;;;13.67;77.04;97995.47;5131790;28;20259;-54
2022/05/22 05:13:28;;;;;;;4.45;4.13;;;12.70;99.90;;;13.77;75.36;97992.53;5118316;28;20277;-55
2022/05/22 05:16:04;;;;;;;4.47;4.18;;;12.70;99.90;;;14.06;75.28;97995.56;5127450;28;20255;-52
2022/05/22 05:18:38;;;;;;;4.95;4.30;;;13.10;99.90;;;14.47;74.43;97989.69;5132029;28;20197;-57
2022/05/22 05:21:14;;;;;;;4.72;4.32;;;13.50;99.90;;;15.06;71.69;97982.78;5126691;28;20201;-54
2022/05/22 05:23:47;;;;;;;4.10;3.80;;;14.10;99.90;;;15.82;69.50;97978.94;5131227;28;20232;-54
2022/05/22 05:26:20;;;;;;;4.40;4.20;;;14.80;99.90;;;16.18;66.01;97972.59;5133244;28;20274;-53
2022/05/22 05:28:55;;;;;;;3.88;3.67;;;15.10;99.90;;;16.67;64.54;97971.78;5132042;28;20213;-54
2022/05/22 05:31:28;;;;;;;4.28;3.75;;;15.40;99.90;;;16.87;64.73;97969.91;5117497;28;20270;-54
2022/05/22 05:34:01;;;;;;;3.78;3.47;;;15.70;99.90;;;17.50;62.14;97964.22;5134327;28;20560;-55
2022/05/22 05:36:35;;;;;;;4.28;3.97;;;16.10;99.90;;;18.10;60.67;97953.13;5126284;28;20290;-55
2022/05/22 05:39:10;;;;;;;3.95;3.60;;;16.60;99.90;;;18.31;59.46;97957.16;5135470;28;20662;-55
2022/05/22 05:41:44;;;;;;;4.00;3.65;;;17.00;99.90;;;18.65;57.55;97959.81;5120297;28;20288;-55
2022/05/22 05:44:18;;;;;;;4.00;3.70;;;17.10;99.90;;;18.67;57.80;97957.28;5124830;28;20242;-57
2022/05/22 05:46:51;;;;;;;4.15;3.83;;;17.10;99.90;;;18.99;56.74;97959.88;5142777;28;20220;-57
2022/05/22 05:49:24;;;;;;;3.90;3.60;;;17.30;99.90;;;19.13;55.81;97953.31;5140517;28;20205;-57
2022/05/22 05:51:57;;;;;;;4.03;3.63;;;17.50;99.90;;;19.26;55.23;97960.56;5135043;28;20325;-55
2022/05/22 05:54:41;;;;;;;3.85;3.65;;;17.60;99.90;;;19.53;55.01;97956.88;5131017;28;20197;-55
2022/05/22 05:57:15;;;;;;;3.38;3.08;;;17.70;99.90;;;19.90;54.24;97958.63;5123820;28;20310;-56
2022/05/22 05:59:53;;;;;;;3.42;3.13;;;17.80;99.90;;;20.26;52.76;97955.06;5121084;28;20887;-54
2022/05/22 06:02:26;;;;;;;3.60;3.13;;;18.10;99.90;;;20.50;52.00;97952.06;5144286;28;20646;-52
2022/05/22 06:04:59;;;;;;;3.28;3.03;;;18.20;99.80;;;20.56;52.27;97948.75;5106903;28;20252;-57
2022/05/22 06:07:32;;;;;;;3.33;3.03;;;18.30;99.40;;;20.56;51.81;97949.59;5155303;28;20264;-55
2022/05/22 06:10:08;;;;;;;3.20;3.00;;;18.30;99.20;;;20.32;51.89;97946.53;5127792;28;20258;-55
2022/05/22 06:12:41;;;;;;;3.28;2.97;;;18.20;99.40;;;20.23;53.00;97945.47;5116308;28;20220;-57
2022/05/22 06:15:16;;;;;;;3.45;3.17;;;18.10;99.90;;;20.51;53.16;97940.81;5119269;28;20286;-56
2022/05/22 06:17:49;;;;;;;3.38;3.00;;;18.30;99.90;;;20.67;52.21;97937.69;5119409;28;20715;-58
2022/05/22 06:20:22;;;;;;;3.30;3.00;;;18.50;99.50;;;20.43;52.70;97938.09;5146430;28;20293;-57
2022/05/22 06:22:55;;;;;;;3.90;3.08;;;18.50;99.50;;;20.93;52.02;97935.56;5118972;28;20225;-58
2022/05/22 06:25:28;;;;;;;3.30;3.00;;;18.90;99.10;;;21.60;50.19;97934.91;5139690;28;20716;-58
2022/05/22 06:28:02;;;;;;;3.13;2.90;;;19.40;98.00;;;22.14;48.11;97933.91;5125531;28;20751;-56
2022/05/22 06:30:36;;;;;;;3.22;2.83;;;19.60;96.80;;;22.41;47.21;97935.16;5122697;28;20219;-57
2022/05/22 06:33:11;;;;;;;3.00;2.80;;;20.00;96.30;;;22.62;47.39;97932.75;5144919;28;20250;-58
2022/05/22 06:35:46;;;;;;;3.08;2.78;;;20.30;96.10;;;23.27;45.71;97920.34;5120440;28;20612;-54
2022/05/22 06:41:13;;;;;;;2.92;2.70;;;21.20;94.80;;;24.13;43.14;97910.44;5144802;28;20258;-56
2022/05/22 06:43:49;;;;;;;3.15;2.85;;;21.60;93.40;;;24.62;41.70;97908.00;5119628;28;20231;-56
2022/05/22 06:46:30;;;;;;;2.80;2.60;;;21.90;92.60;;;24.91;41.16;97910.66;5132447;28;20324;-55
2022/05/22 06:49:04;;;;;;;2.78;2.30;;;22.30;92.10;;;24.87;42.14;97914.16;5117580;28;20205;-57
2022/05/22 06:51:37;;;;;;;3.28;2.80;;;22.50;92.00;;;25.01;41.97;97901.06;5123111;28;20208;-57
2022/05/22 06:54:10;;;;;;;3.05;2.30;;;22.70;91.80;;;25.48;40.79;97908.94;5119738;28;20228;-57
2022/05/22 06:56:43;;;;;;;2.60;2.40;;;23.00;91.10;;;25.30;40.50;97908.97;5119360;28;20247;-58
2022/05/22 06:59:17;;;;;;;3.13;2.60;;;23.10;90.80;;;25.32;41.87;97918.53;5120409;28;20250;-57
2022/05/22 07:01:51;;;;;;;2.55;2.35;;;23.20;91.20;;;25.84;39.73;97920.25;5119887;28;20200;-58
2022/05/22 07:04:24;;;;;;;3.10;2.50;;;23.20;90.10;;;25.47;40.37;97922.91;5125591;28;20210;-57
2022/05/22 07:06:57;;;;;;;3.13;2.60;;;23.40;90.00;;;25.56;40.03;97922.03;5152941;28;20216;-57
2022/05/22 07:09:30;;;;;;;2.60;2.40;;;23.30;90.00;;;26.02;39.83;97914.09;5151650;28;20290;-59
2022/05/22 07:12:08;;;;;;;2.85;2.50;;;23.60;89.90;;;25.83;39.97;97921.97;5169025;28;20679;-57
2022/05/22 07:14:42;;;;;;;2.45;2.20;;;23.50;90.10;;;26.43;38.65;97919.13;5122639;28;20274;-57
2022/05/22 07:17:21;;;;;;;3.17;2.28;;;23.70;88.40;;;26.71;38.75;97913.75;5119723;28;20262;-56
2022/05/22 07:19:56;;;;;;;3.63;2.65;;;24.00;90.00;;;27.23;37.83;97918.66;5124742;28;20269;-55
2022/05/22 07:22:29;;;;;;;3.42;2.10;;;24.40;88.00;;;27.27;37.67;97915.13;5158601;28;20274;-57
2022/05/22 07:25:03;;;;;;;3.58;3.03;;;24.60;86.80;;;27.20;36.46;97918.69;5121444;28;20262;-60
2022/05/22 07:27:36;;;;;;;4.45;2.88;;;24.60;85.10;;;27.49;36.43;97920.16;5120246;28;20694;-57
2022/05/22 07:30:10;;;;;;;2.35;2.13;;;24.80;84.60;;;27.68;37.18;97907.75;5122456;28;20204;-58
2022/05/22 07:32:44;;;;;;;4.20;2.33;;;24.70;86.50;;;27.76;36.30;97916.41;5114529;28;20683;-57
2022/05/22 07:35:18;;;;;;;3.15;2.15;;;24.80;85.10;;;27.36;37.37;97904.53;5160052;28;20312;-58
2022/05/22 07:37:52;;;;;;;3.50;2.03;;;24.70;86.30;;;27.52;36.48;97905.25;5116796;28;20290;-58
2022/05/22 07:40:25;;;;;;;2.35;2.10;;;24.70;84.70;;;28.17;35.18;97891.44;5128141;28;20211;-56
2022/05/22 07:42:58;;;;;;;2.80;2.20;;;25.10;82.60;;;28.47;34.34;97896.31;5141303;28;20240;-58
2022/05/22 07:45:32;;;;;;;4.45;2.20;;;25.20;82.30;;;28.32;33.64;97893.00;5132310;28;20576;-53
2022/05/22 07:48:07;;;;;;;2.10;1.90;;;25.30;80.70;;;28.16;34.88;97892.31;5160312;28;20657;-54
2022/05/22 07:50:40;;;;;;;8.05;2.80;;;25.30;81.60;;;28.19;34.21;97887.91;5130360;28;20668;-59
2022/05/22 07:53:14;;;;;;;3.25;2.05;;;25.20;81.70;;;28.66;33.93;97890.78;5117865;28;20212;-60
2022/05/22 07:55:47;;;;;;;2.58;1.95;;;25.60;81.80;;;28.43;34.20;97888.50;5141067;28;20633;-60
2022/05/22 07:58:25;;;;;;;3.33;2.20;;;25.40;81.20;;;28.90;34.04;97881.63;5150320;28;20204;-59
2022/05/22 08:01:00;;;;;;;1.98;1.75;;;25.60;81.50;;;29.03;33.31;97871.81;5164258;28;20200;-61
2022/05/22 08:03:34;;;;;;;2.63;1.83;;;25.70;81.00;;;29.25;33.13;97877.59;5123366;28;20204;-61
2022/05/22 08:06:07;;;;;;;2.25;1.92;;;25.80;80.30;;;28.85;33.03;97883.50;5121251;28;20672;-60
2022/05/22 08:08:40;;;;;;;3.20;1.73;;;25.90;79.60;;;28.91;34.10;97878.13;5175504;28;20717;-61
2022/05/22 08:11:16;;;;;;;3.15;1.90;;;26.20;79.40;;;28.75;33.64;97878.34;5175100;28;20576;-61
2022/05/22 08:13:49;;;;;;;1.67;1.58;;;26.30;77.60;;;28.30;32.18;97880.75;5117114;28;20255;-61
2022/05/22 08:16:22;;;;;;;1.50;1.40;;;25.90;74.80;;;28.08;32.24;97874.03;5176172;28;20335;-59
2022/05/22 08:18:57;;;;;;;2.95;1.52;;;25.90;73.70;;;28.04;31.68;97878.47;5159069;28;20300;-62
2022/05/22 08:21:30;;;;;;;2.45;1.50;;;25.80;72.60;;;27.94;31.13;97870.69;5142052;28;20199;-62
2022/05/22 08:24:03;;;;;;;2.15;1.70;;;25.90;71.40;;;28.14;31.41;97860.78;5143727;28;20285;-60
2022/05/22 08:26:37;;;;;;;1.77;1.40;;;26.10;72.30;;;28.22;30.39;97853.69;5128783;28;20281;-62
2022/05/22 08:29:10;;;;;;;1.55;1.30;;;26.50;69.80;;;28.26;29.02;97852.72;5120530;28;20672;-62
2022/05/22 08:31:44;;;;;;;2.42;1.20;;;26.50;66.40;;;28.36;28.48;97852.59;5119749;28;20200;-61
2022/05/22 08:34:18;;;;;;;2.97;1.50;;;26.60;66.10;;;28.40;29.40;97854.31;5121875;28;20223;-61
2022/05/22 08:36:52;;;;;;;1.63;1.38;;;26.70;66.70;;;28.38;29.24;97856.94;5161886;28;20259;-62
2022/05/22 08:39:25;;;;;;;1.98;1.20;;;26.70;67.40;;;28.29;29.82;97844.81;5170618;28;20200;-62
2022/05/22 08:42:00;;;;;;;3.08;1.48;;;26.50;67.70;;;28.35;30.85;97843.84;5188020;28;20251;-60
2022/05/22 08:44:34;;;;;;;3.28;1.67;;;26.60;69.20;;;28.37;31.24;97835.94;5168450;28;20744;-62
2022/05/22 08:47:17;;;;;;;2.22;1.60;;;26.80;69.20;;;28.44;30.12;97832.34;5167264;28;20228;-62
2022/05/22 08:49:59;;;;;;;1.50;1.40;;;26.90;67.40;;;27.47;32.00;97832.66;5124777;28;20211;-60
2022/05/22 08:52:41;;;;;;;2.45;1.70;;;26.40;69.10;;;27.64;32.89;97833.34;5172533;28;20224;-60
2022/05/22 08:55:20;;;;;;;2.50;1.50;;;26.30;71.60;;;27.88;32.38;97823.47;5119828;28;20216;-60
2022/05/22 09:01:05;;;;;;;1.95;1.70;;;26.60;69.60;;;27.85;31.31;97822.63;5109891;28;20263;-60
2022/05/22 09:03:46;;;;;;;1.65;1.38;;;26.40;69.30;;;27.88;32.26;97813.84;5138538;28;20205;-58
2022/05/22 09:06:29;;;;;;;2.15;1.50;;;26.50;71.60;;;27.67;32.73;97814.94;5126960;28;20310;-57
2022/05/22 09:09:02;;;;;;;1.92;1.67;;;26.40;70.70;;;27.40;32.39;97819.59;5132877;28;20680;-58
2022/05/22 09:11:55;;;;;;;3.08;1.60;;;26.00;70.10;;;27.33;32.79;97807.44;5155253;28;20600;-57
2022/05/22 09:14:38;;;;;;;2.63;1.67;;;26.00;70.80;;;27.28;32.59;97806.59;5121141;28;20330;-60
2022/05/22 09:17:17;;;;;;;2.25;1.85;;;26.00;70.30;;;27.38;33.42;97797.72;5117890;28;20656;-58
2022/05/22 09:20:03;;;;;;;3.25;1.60;;;26.00;73.20;;;27.34;33.95;97808.31;5121383;28;20269;-59
2022/05/22 09:22:52;;;;;;;2.30;1.60;;;26.20;72.30;;;27.39;33.82;97799.50;5118646;28;20246;-60
2022/05/22 09:25:42;;;;;;;1.73;1.63;;;26.10;72.10;;;27.49;32.09;97802.00;5116674;28;20193;-60
2022/05/22 09:28:26;;;;;;;2.90;1.67;;;26.30;70.00;;;27.42;33.32;97800.34;5130789;28;20286;-59
2022/05/22 09:31:14;;;;;;;1.75;1.60;;;26.10;72.00;;;27.42;32.84;97800.34;5119161;28;20232;-61
2022/05/22 09:34:02;;;;;;;2.13;1.40;;;26.10;70.80;;;27.30;32.49;97782.94;5116737;28;20200;-59
2022/05/22 09:36:49;;;;;;;2.10;1.73;;;25.80;70.40;;;27.30;32.85;97788.19;5130399;28;20256;-59
2022/05/22 09:40:03;;;;;;;1.80;1.38;;;25.90;70.80;;;27.21;31.92;97773.41;5122018;28;20302;-61
2022/05/22 09:42:52;;;;;;;3.05;1.60;;;25.90;69.00;;;27.11;32.56;97774.38;5116917;28;20268;-62
2022/05/22 09:45:40;;;;;;;2.60;1.30;;;25.90;70.00;;;27.16;31.83;97772.63;5117283;28;20235;-59
2022/05/22 09:48:29;;;;;;;1.38;1.23;;;26.00;68.30;;;27.02;32.66;97772.72;5123797;28;20240;-59
2022/05/22 09:51:12;;;;;;;1.80;1.42;;;25.90;69.50;;;27.07;31.69;97767.41;5117317;28;20629;-55
2022/05/22 09:54:07;;;;;;;1.92;1.30;;;25.90;68.40;;;26.98;31.75;97764.88;5117313;28;20236;-60
2022/05/22 09:57:12;;;;;;;1.88;1.23;;;25.70;68.10;;;26.89;32.37;97761.47;5115875;28;20688;-60
2022/05/22 10:00:07;;;;;;;2.53;1.50;;;25.80;69.00;;;26.96;32.43;97762.28;5121475;28;20213;-60
2022/05/22 10:02:56;;;;;;;1.50;1.30;;;25.90;68.40;;;26.90;31.77;97760.59;5113633;28;20245;-60
2022/05/22 10:05:51;;;;;;;1.38;1.27;;;25.80;67.40;;;26.80;31.94;97768.56;5122206;28;20239;-60
2022/05/22 10:08:38;;;;;;;1.50;1.30;;;25.60;67.80;;;26.70;31.54;97755.53;5128159;28;20266;-60
2022/05/22 10:11:18;;;;;;;2.15;1.48;;;25.70;66.70;;;26.81;32.79;97749.31;5120608;28;20298;-60
2022/05/22 10:14:24;;;;;;;1.60;1.10;;;25.80;69.20;;;26.68;32.63;97756.44;5128054;28;20262;-60
2022/05/22 10:17:14;;;;;;;1.70;1.42;;;25.80;67.70;;;26.26;33.68;97747.97;5118922;28;20220;-60
2022/05/22 10:19:58;;;;;;;2.30;1.40;;;25.50;68.70;;;26.30;33.09;97752.34;5121280;28;20231;-62
2022/05/22 10:22:43;;;;;;;1.67;1.50;;;25.30;68.10;;;26.15;33.94;97750.66;5121782;28;20232;-60
2022/05/22 10:25:38;;;;;;;1.60;1.50;;;25.10;70.20;;;26.04;34.75;97742.00;5118781;28;20243;-59
2022/05/22 10:28:15;;;;;;;1.83;1.40;;;25.00;72.30;;;26.19;35.44;97747.16;5114185;28;20243;-60
2022/05/22 10:30:57;;;;;;;1.63;1.50;;;25.20;72.60;;;26.09;34.47;97739.38;5129534;28;20231;-60
2022/05/22 10:33:37;;;;;;;1.60;1.50;;;25.20;71.00;;;26.04;34.34;97737.66;5123427;28;20207;-58
2022/05/22 10:36:13;;;;;;;2.08;1.50;;;25.00;70.60;;;26.09;34.42;97742.84;5119374;28;20278;-60
2022/05/22 10:38:54;;;;;;;1.67;1.58;;;25.10;71.20;;;26.15;33.65;97744.56;5125692;28;20707;-60
2022/05/22 10:44:28;;;;;;;1.40;1.30;;;25.10;72.00;;;25.93;34.51;97734.25;5127475;28;20549;-58
2022/05/22 10:47:04;;;;;;;1.65;1.55;;;25.00;70.30;;;25.80;33.16;97728.16;5118635;28;20326;-59
2022/05/22 10:49:40;;;;;;;1.40;1.30;;;24.90;68.30;;;25.79;33.81;97721.19;5133232;28;20258;-59
2022/05/22 10:52:23;;;;;;;1.83;1.45;;;24.70;70.20;;;25.74;35.51;97714.22;5138912;28;20239;-59
2022/05/22 10:54:57;;;;;;;1.60;1.45;;;24.70;73.40;;;25.69;35.20;97708.16;5122158;28;20707;-59
2022/05/22 10:57:32;;;;;;;1.98;1.75;;;24.80;71.30;;;25.70;35.42;97716.00;5126117;28;20691;-58
2022/05/22 11:00:17;;;;;;;1.75;1.60;;;24.90;71.90;;;25.76;34.55;97707.25;5130661;28;20637;-59
2022/05/22 11:02:51;;;;;;;1.77;1.40;;;24.90;70.80;;;25.62;35.87;97707.31;5125136;28;20680;-58
2022/05/22 11:05:29;;;;;;;2.45;1.80;;;24.70;72.20;;;25.51;35.77;97704.75;5124843;28;20208;-56
2022/05/22 11:08:02;;;;;;;2.20;1.65;;;24.60;72.30;;;25.46;35.61;97701.28;5122968;28;20649;-58
2022/05/22 11:10:38;;;;;;;1.55;1.45;;;24.60;72.30;;;25.52;36.16;97700.38;5133661;28;20441;-58